sensor_id;sensor_type;location;lat;lon;timestamp;P1;durP1;ratioP1;P2;durP2;ratioP2
41921;SDS011;27609;51.002;5.354;2023-09-30T00:00:25;7.32;;;4.90;;
41921;SDS011;27609;51.002;5.354;2023-09-30T00:02:51;8.48;;;4.22;;
41921;SDS011;27609;51.002;5.354;2023-09-30T00:05:17;8.80;;;4.35;;
41921;SDS011;27609;51.002;5.354;2023-09-30T00:07:45;9.10;;;4.95;;
41921;SDS011;27609;51.002;5.354;2023-09-30T00:10:11;9.15;;;4.80;;
41921;SDS011;27609;51.002;5.354;2023-09-30T00:12:37;7.05;;;3.92;;
41921;SDS011;27609;51.002;5.354;2023-09-30T00:15:03;11.05;;;4.47;;
41921;SDS011;27609;51.002;5.354;2023-09-30T00:17:29;8.60;;;4.80;;
41921;SDS011;27609;51.002;5.354;2023-09-30T00:19:55;6.20;;;4.82;;
41921;SDS011;27609;51.002;5.354;2023-09-30T00:22:20;7.28;;;4.70;;
41921;SDS011;27609;51.002;5.354;2023-09-30T00:24:46;8.45;;;4.15;;
41921;SDS011;27609;51.002;5.354;2023-09-30T00:27:12;8.43;;;4.97;;
41921;SDS011;27609;51.002;5.354;2023-09-30T00:29:38;6.55;;;4.53;;
41921;SDS011;27609;51.002;5.354;2023-09-30T00:32:03;10.10;;;4.97;;
41921;SDS011;27609;51.002;5.354;2023-09-30T00:34:32;13.57;;;7.03;;
41921;SDS011;27609;51.002;5.354;2023-09-30T00:37:00;10.27;;;7.18;;
41921;SDS011;27609;51.002;5.354;2023-09-30T00:39:26;9.93;;;6.22;;
41921;SDS011;27609;51.002;5.354;2023-09-30T00:41:58;11.13;;;6.45;;
41921;SDS011;27609;51.002;5.354;2023-09-30T00:44:27;9.88;;;6.38;;
41921;SDS011;27609;51.002;5.354;2023-09-30T00:46:53;11.63;;;6.85;;
41921;SDS011;27609;51.002;5.354;2023-09-30T00:49:23;11.48;;;7.00;;
41921;SDS011;27609;51.002;5.354;2023-09-30T00:51:50;8.73;;;5.47;;
41921;SDS011;27609;51.002;5.354;2023-09-30T00:54:17;10.10;;;5.88;;
41921;SDS011;27609;51.002;5.354;2023-09-30T00:56:44;11.73;;;6.60;;
41921;SDS011;27609;51.002;5.354;2023-09-30T00:59:11;11.40;;;5.18;;
41921;SDS011;27609;51.002;5.354;2023-09-30T01:01:38;9.95;;;6.18;;
41921;SDS011;27609;51.002;5.354;2023-09-30T01:04:04;13.20;;;5.78;;
41921;SDS011;27609;51.002;5.354;2023-09-30T01:06:31;9.10;;;4.70;;
41921;SDS011;27609;51.002;5.354;2023-09-30T01:08:56;14.80;;;5.38;;
41921;SDS011;27609;51.002;5.354;2023-09-30T01:11:22;7.10;;;4.75;;
41921;SDS011;27609;51.002;5.354;2023-09-30T01:13:49;12.40;;;5.45;;
41921;SDS011;27609;51.002;5.354;2023-09-30T01:16:14;11.18;;;6.32;;
41921;SDS011;27609;51.002;5.354;2023-09-30T01:18:40;14.70;;;8.00;;
41921;SDS011;27609;51.002;5.354;2023-09-30T01:21:07;16.38;;;6.43;;
41921;SDS011;27609;51.002;5.354;2023-09-30T01:23:34;12.88;;;6.75;;
41921;SDS011;27609;51.002;5.354;2023-09-30T01:26:03;11.35;;;5.45;;
41921;SDS011;27609;51.002;5.354;2023-09-30T01:28:31;8.32;;;6.25;;
41921;SDS011;27609;51.002;5.354;2023-09-30T01:30:57;11.95;;;5.85;;
41921;SDS011;27609;51.002;5.354;2023-09-30T01:33:23;7.97;;;5.53;;
41921;SDS011;27609;51.002;5.354;2023-09-30T01:35:49;10.43;;;5.65;;
41921;SDS011;27609;51.002;5.354;2023-09-30T01:38:15;7.97;;;6.20;;
41921;SDS011;27609;51.002;5.354;2023-09-30T01:40:41;7.20;;;5.10;;
41921;SDS011;27609;51.002;5.354;2023-09-30T01:43:07;10.52;;;5.88;;
41921;SDS011;27609;51.002;5.354;2023-09-30T01:45:33;9.50;;;5.20;;
41921;SDS011;27609;51.002;5.354;2023-09-30T01:48:00;8.77;;;5.53;;
41921;SDS011;27609;51.002;5.354;2023-09-30T01:50:27;9.55;;;4.97;;
41921;SDS011;27609;51.002;5.354;2023-09-30T01:52:53;10.77;;;5.28;;
41921;SDS011;27609;51.002;5.354;2023-09-30T01:55:18;10.55;;;4.88;;
41921;SDS011;27609;51.002;5.354;2023-09-30T01:57:44;12.02;;;5.78;;
41921;SDS011;27609;51.002;5.354;2023-09-30T02:00:10;9.73;;;5.60;;
41921;SDS011;27609;51.002;5.354;2023-09-30T02:02:37;6.72;;;5.32;;
41921;SDS011;27609;51.002;5.354;2023-09-30T02:05:03;7.88;;;5.53;;
41921;SDS011;27609;51.002;5.354;2023-09-30T02:07:29;15.40;;;5.20;;
41921;SDS011;27609;51.002;5.354;2023-09-30T02:09:56;7.70;;;4.78;;
41921;SDS011;27609;51.002;5.354;2023-09-30T02:12:22;12.05;;;5.18;;
41921;SDS011;27609;51.002;5.354;2023-09-30T02:14:48;8.90;;;5.57;;
41921;SDS011;27609;51.002;5.354;2023-09-30T02:17:13;7.88;;;5.95;;
41921;SDS011;27609;51.002;5.354;2023-09-30T02:19:39;9.85;;;5.15;;
41921;SDS011;27609;51.002;5.354;2023-09-30T02:22:05;9.73;;;4.70;;
41921;SDS011;27609;51.002;5.354;2023-09-30T02:24:31;10.10;;;5.50;;
41921;SDS011;27609;51.002;5.354;2023-09-30T02:26:57;11.15;;;5.38;;
41921;SDS011;27609;51.002;5.354;2023-09-30T02:29:23;8.27;;;4.70;;
41921;SDS011;27609;51.002;5.354;2023-09-30T02:31:49;10.07;;;5.20;;
41921;SDS011;27609;51.002;5.354;2023-09-30T02:34:15;8.57;;;4.75;;
41921;SDS011;27609;51.002;5.354;2023-09-30T02:36:40;7.07;;;4.70;;
41921;SDS011;27609;51.002;5.354;2023-09-30T02:39:07;7.90;;;5.38;;
41921;SDS011;27609;51.002;5.354;2023-09-30T02:41:34;11.77;;;5.03;;
41921;SDS011;27609;51.002;5.354;2023-09-30T02:44:00;9.00;;;5.28;;
41921;SDS011;27609;51.002;5.354;2023-09-30T02:46:26;5.15;;;4.07;;
41921;SDS011;27609;51.002;5.354;2023-09-30T02:48:53;6.82;;;4.05;;
41921;SDS011;27609;51.002;5.354;2023-09-30T02:51:19;10.73;;;5.10;;
41921;SDS011;27609;51.002;5.354;2023-09-30T02:53:44;6.55;;;4.10;;
41921;SDS011;27609;51.002;5.354;2023-09-30T02:56:11;9.18;;;4.43;;
41921;SDS011;27609;51.002;5.354;2023-09-30T02:58:37;9.40;;;3.88;;
41921;SDS011;27609;51.002;5.354;2023-09-30T03:01:03;10.27;;;4.72;;
41921;SDS011;27609;51.002;5.354;2023-09-30T03:03:29;6.38;;;4.60;;
41921;SDS011;27609;51.002;5.354;2023-09-30T03:05:56;10.63;;;4.90;;
41921;SDS011;27609;51.002;5.354;2023-09-30T03:08:22;6.95;;;4.75;;
41921;SDS011;27609;51.002;5.354;2023-09-30T03:10:50;8.48;;;5.50;;
41921;SDS011;27609;51.002;5.354;2023-09-30T03:13:15;11.55;;;6.35;;
41921;SDS011;27609;51.002;5.354;2023-09-30T03:15:43;8.68;;;5.03;;
41921;SDS011;27609;51.002;5.354;2023-09-30T03:18:09;5.68;;;4.40;;
41921;SDS011;27609;51.002;5.354;2023-09-30T03:20:35;5.43;;;4.30;;
41921;SDS011;27609;51.002;5.354;2023-09-30T03:23:05;6.10;;;4.43;;
41921;SDS011;27609;51.002;5.354;2023-09-30T03:25:31;6.90;;;4.97;;
41921;SDS011;27609;51.002;5.354;2023-09-30T03:27:57;7.05;;;4.10;;
41921;SDS011;27609;51.002;5.354;2023-09-30T03:30:23;8.38;;;4.50;;
41921;SDS011;27609;51.002;5.354;2023-09-30T03:32:49;5.90;;;4.90;;
41921;SDS011;27609;51.002;5.354;2023-09-30T03:35:15;8.52;;;4.85;;
41921;SDS011;27609;51.002;5.354;2023-09-30T03:37:44;8.20;;;4.80;;
41921;SDS011;27609;51.002;5.354;2023-09-30T03:40:11;9.20;;;5.20;;
41921;SDS011;27609;51.002;5.354;2023-09-30T03:42:40;6.43;;;3.85;;
41921;SDS011;27609;51.002;5.354;2023-09-30T03:45:07;5.47;;;4.60;;
41921;SDS011;27609;51.002;5.354;2023-09-30T03:47:34;6.38;;;5.07;;
41921;SDS011;27609;51.002;5.354;2023-09-30T03:50:03;6.47;;;4.70;;
41921;SDS011;27609;51.002;5.354;2023-09-30T03:52:33;9.38;;;5.82;;
41921;SDS011;27609;51.002;5.354;2023-09-30T03:54:59;13.85;;;5.68;;
41921;SDS011;27609;51.002;5.354;2023-09-30T03:57:30;13.63;;;5.63;;
41921;SDS011;27609;51.002;5.354;2023-09-30T04:00:01;15.68;;;5.93;;
41921;SDS011;27609;51.002;5.354;2023-09-30T04:02:31;9.60;;;6.40;;
41921;SDS011;27609;51.002;5.354;2023-09-30T04:04:57;13.50;;;6.45;;
41921;SDS011;27609;51.002;5.354;2023-09-30T04:07:22;9.73;;;6.50;;
41921;SDS011;27609;51.002;5.354;2023-09-30T04:09:53;11.20;;;6.03;;
41921;SDS011;27609;51.002;5.354;2023-09-30T04:12:20;11.88;;;6.35;;
41921;SDS011;27609;51.002;5.354;2023-09-30T04:14:46;9.88;;;5.93;;
41921;SDS011;27609;51.002;5.354;2023-09-30T04:17:11;12.40;;;6.38;;
41921;SDS011;27609;51.002;5.354;2023-09-30T04:19:37;11.15;;;7.07;;
41921;SDS011;27609;51.002;5.354;2023-09-30T04:22:03;13.65;;;6.18;;
41921;SDS011;27609;51.002;5.354;2023-09-30T04:24:29;10.43;;;5.65;;
41921;SDS011;27609;51.002;5.354;2023-09-30T04:26:54;8.07;;;5.35;;
41921;SDS011;27609;51.002;5.354;2023-09-30T04:29:26;10.43;;;6.10;;
41921;SDS011;27609;51.002;5.354;2023-09-30T04:31:52;7.78;;;5.93;;
41921;SDS011;27609;51.002;5.354;2023-09-30T04:34:18;8.93;;;5.97;;
41921;SDS011;27609;51.002;5.354;2023-09-30T04:36:44;9.48;;;5.82;;
41921;SDS011;27609;51.002;5.354;2023-09-30T04:39:10;9.82;;;5.95;;
41921;SDS011;27609;51.002;5.354;2023-09-30T04:41:37;9.35;;;5.43;;
41921;SDS011;27609;51.002;5.354;2023-09-30T04:44:06;14.77;;;5.95;;
41921;SDS011;27609;51.002;5.354;2023-09-30T04:46:35;8.73;;;5.35;;
41921;SDS011;27609;51.002;5.354;2023-09-30T04:49:01;11.65;;;6.72;;
41921;SDS011;27609;51.002;5.354;2023-09-30T04:51:27;7.30;;;4.72;;
41921;SDS011;27609;51.002;5.354;2023-09-30T04:53:53;7.35;;;5.35;;
41921;SDS011;27609;51.002;5.354;2023-09-30T04:56:20;10.80;;;5.90;;
41921;SDS011;27609;51.002;5.354;2023-09-30T04:58:46;10.68;;;5.63;;
41921;SDS011;27609;51.002;5.354;2023-09-30T05:01:12;10.93;;;6.70;;
41921;SDS011;27609;51.002;5.354;2023-09-30T05:03:38;13.23;;;6.22;;
41921;SDS011;27609;51.002;5.354;2023-09-30T05:06:03;11.18;;;6.40;;
41921;SDS011;27609;51.002;5.354;2023-09-30T05:08:29;12.55;;;6.50;;
41921;SDS011;27609;51.002;5.354;2023-09-30T05:10:56;8.60;;;6.15;;
41921;SDS011;27609;51.002;5.354;2023-09-30T05:13:21;9.85;;;6.55;;
41921;SDS011;27609;51.002;5.354;2023-09-30T05:15:48;8.40;;;6.10;;
41921;SDS011;27609;51.002;5.354;2023-09-30T05:18:15;6.70;;;5.03;;
41921;SDS011;27609;51.002;5.354;2023-09-30T05:20:40;7.53;;;5.40;;
41921;SDS011;27609;51.002;5.354;2023-09-30T05:23:06;8.60;;;5.53;;
41921;SDS011;27609;51.002;5.354;2023-09-30T05:25:38;8.23;;;5.38;;
41921;SDS011;27609;51.002;5.354;2023-09-30T05:28:04;11.63;;;7.13;;
41921;SDS011;27609;51.002;5.354;2023-09-30T05:30:32;15.38;;;6.75;;
41921;SDS011;27609;51.002;5.354;2023-09-30T05:32:58;13.57;;;6.13;;
41921;SDS011;27609;51.002;5.354;2023-09-30T05:35:25;8.52;;;5.05;;
41921;SDS011;27609;51.002;5.354;2023-09-30T05:37:51;9.15;;;5.22;;
41921;SDS011;27609;51.002;5.354;2023-09-30T05:40:18;9.13;;;5.18;;
41921;SDS011;27609;51.002;5.354;2023-09-30T05:42:47;6.93;;;4.95;;
41921;SDS011;27609;51.002;5.354;2023-09-30T05:45:15;8.52;;;5.28;;
41921;SDS011;27609;51.002;5.354;2023-09-30T05:47:41;7.95;;;5.35;;
41921;SDS011;27609;51.002;5.354;2023-09-30T05:50:07;7.82;;;6.03;;
41921;SDS011;27609;51.002;5.354;2023-09-30T05:52:42;9.20;;;4.90;;
41921;SDS011;27609;51.002;5.354;2023-09-30T05:55:10;7.60;;;4.47;;
41921;SDS011;27609;51.002;5.354;2023-09-30T05:57:36;9.50;;;5.63;;
41921;SDS011;27609;51.002;5.354;2023-09-30T06:00:02;10.05;;;5.88;;
41921;SDS011;27609;51.002;5.354;2023-09-30T06:02:51;9.63;;;6.57;;
41921;SDS011;27609;51.002;5.354;2023-09-30T06:05:17;11.60;;;6.13;;
41921;SDS011;27609;51.002;5.354;2023-09-30T06:07:47;11.57;;;6.85;;
41921;SDS011;27609;51.002;5.354;2023-09-30T06:10:14;6.80;;;5.20;;
41921;SDS011;27609;51.002;5.354;2023-09-30T06:12:43;10.47;;;6.33;;
41921;SDS011;27609;51.002;5.354;2023-09-30T06:15:11;10.48;;;6.93;;
41921;SDS011;27609;51.002;5.354;2023-09-30T06:17:38;12.32;;;8.05;;
41921;SDS011;27609;51.002;5.354;2023-09-30T06:20:04;8.73;;;6.45;;
41921;SDS011;27609;51.002;5.354;2023-09-30T06:22:33;8.60;;;5.97;;
41921;SDS011;27609;51.002;5.354;2023-09-30T06:24:59;12.23;;;6.72;;
41921;SDS011;27609;51.002;5.354;2023-09-30T06:27:24;10.88;;;6.55;;
41921;SDS011;27609;51.002;5.354;2023-09-30T06:29:51;13.38;;;6.35;;
41921;SDS011;27609;51.002;5.354;2023-09-30T06:32:16;9.73;;;7.03;;
41921;SDS011;27609;51.002;5.354;2023-09-30T06:34:42;12.27;;;7.28;;
41921;SDS011;27609;51.002;5.354;2023-09-30T06:37:08;14.43;;;8.60;;
41921;SDS011;27609;51.002;5.354;2023-09-30T06:39:33;14.82;;;8.98;;
41921;SDS011;27609;51.002;5.354;2023-09-30T06:41:59;12.45;;;8.40;;
41921;SDS011;27609;51.002;5.354;2023-09-30T06:44:25;17.02;;;8.50;;
41921;SDS011;27609;51.002;5.354;2023-09-30T06:46:50;11.90;;;8.32;;
41921;SDS011;27609;51.002;5.354;2023-09-30T06:49:16;14.32;;;8.48;;
41921;SDS011;27609;51.002;5.354;2023-09-30T06:51:42;14.65;;;8.80;;
41921;SDS011;27609;51.002;5.354;2023-09-30T06:54:08;14.23;;;8.18;;
41921;SDS011;27609;51.002;5.354;2023-09-30T06:56:34;12.77;;;8.55;;
41921;SDS011;27609;51.002;5.354;2023-09-30T06:59:00;14.10;;;8.70;;
41921;SDS011;27609;51.002;5.354;2023-09-30T07:01:26;13.30;;;8.55;;
41921;SDS011;27609;51.002;5.354;2023-09-30T07:03:52;15.82;;;8.57;;
41921;SDS011;27609;51.002;5.354;2023-09-30T07:06:24;17.20;;;9.13;;
41921;SDS011;27609;51.002;5.354;2023-09-30T07:08:50;15.43;;;9.43;;
41921;SDS011;27609;51.002;5.354;2023-09-30T07:11:16;12.73;;;8.77;;
41921;SDS011;27609;51.002;5.354;2023-09-30T07:13:42;17.10;;;9.70;;
41921;SDS011;27609;51.002;5.354;2023-09-30T07:16:07;13.63;;;9.15;;
41921;SDS011;27609;51.002;5.354;2023-09-30T07:18:33;15.63;;;8.63;;
41921;SDS011;27609;51.002;5.354;2023-09-30T07:20:59;18.15;;;8.75;;
41921;SDS011;27609;51.002;5.354;2023-09-30T07:23:24;13.07;;;9.27;;
41921;SDS011;27609;51.002;5.354;2023-09-30T07:25:50;12.27;;;9.00;;
41921;SDS011;27609;51.002;5.354;2023-09-30T07:28:17;12.82;;;8.80;;
41921;SDS011;27609;51.002;5.354;2023-09-30T07:30:43;14.18;;;8.57;;
41921;SDS011;27609;51.002;5.354;2023-09-30T07:33:09;11.70;;;8.25;;
41921;SDS011;27609;51.002;5.354;2023-09-30T07:35:34;17.80;;;9.02;;
41921;SDS011;27609;51.002;5.354;2023-09-30T07:38:00;15.57;;;9.38;;
41921;SDS011;27609;51.002;5.354;2023-09-30T07:40:26;15.10;;;8.65;;
41921;SDS011;27609;51.002;5.354;2023-09-30T07:42:52;16.33;;;9.05;;
41921;SDS011;27609;51.002;5.354;2023-09-30T07:45:19;16.92;;;8.57;;
41921;SDS011;27609;51.002;5.354;2023-09-30T07:47:46;10.75;;;8.15;;
41921;SDS011;27609;51.002;5.354;2023-09-30T07:50:11;16.02;;;9.40;;
41921;SDS011;27609;51.002;5.354;2023-09-30T07:52:37;15.82;;;9.50;;
41921;SDS011;27609;51.002;5.354;2023-09-30T07:55:07;18.98;;;8.45;;
41921;SDS011;27609;51.002;5.354;2023-09-30T07:57:34;16.90;;;9.80;;
41921;SDS011;27609;51.002;5.354;2023-09-30T08:00:00;14.32;;;9.52;;
41921;SDS011;27609;51.002;5.354;2023-09-30T08:02:28;12.30;;;9.10;;
41921;SDS011;27609;51.002;5.354;2023-09-30T08:04:58;16.35;;;9.98;;
41921;SDS011;27609;51.002;5.354;2023-09-30T08:07:25;18.25;;;11.00;;
41921;SDS011;27609;51.002;5.354;2023-09-30T08:09:50;18.98;;;11.10;;
41921;SDS011;27609;51.002;5.354;2023-09-30T08:12:16;21.48;;;13.70;;
41921;SDS011;27609;51.002;5.354;2023-09-30T08:14:42;18.00;;;11.65;;
41921;SDS011;27609;51.002;5.354;2023-09-30T08:17:10;26.73;;;13.45;;
41921;SDS011;27609;51.002;5.354;2023-09-30T08:19:36;20.13;;;13.23;;
41921;SDS011;27609;51.002;5.354;2023-09-30T08:22:02;23.60;;;16.17;;
41921;SDS011;27609;51.002;5.354;2023-09-30T08:24:28;25.38;;;16.45;;
41921;SDS011;27609;51.002;5.354;2023-09-30T08:26:54;35.25;;;19.92;;
41921;SDS011;27609;51.002;5.354;2023-09-30T08:29:21;35.88;;;21.58;;
41921;SDS011;27609;51.002;5.354;2023-09-30T08:31:47;35.42;;;20.55;;
41921;SDS011;27609;51.002;5.354;2023-09-30T08:34:15;42.15;;;22.70;;
41921;SDS011;27609;51.002;5.354;2023-09-30T08:36:42;44.10;;;23.67;;
41921;SDS011;27609;51.002;5.354;2023-09-30T08:39:08;43.67;;;24.95;;
41921;SDS011;27609;51.002;5.354;2023-09-30T08:41:35;48.72;;;25.30;;
41921;SDS011;27609;51.002;5.354;2023-09-30T08:44:01;46.30;;;27.35;;
41921;SDS011;27609;51.002;5.354;2023-09-30T08:46:32;48.53;;;26.83;;
41921;SDS011;27609;51.002;5.354;2023-09-30T08:49:02;45.25;;;25.88;;
41921;SDS011;27609;51.002;5.354;2023-09-30T08:51:30;43.53;;;24.95;;
41921;SDS011;27609;51.002;5.354;2023-09-30T08:53:57;47.28;;;25.92;;
41921;SDS011;27609;51.002;5.354;2023-09-30T08:56:27;44.08;;;25.02;;
41921;SDS011;27609;51.002;5.354;2023-09-30T08:58:55;43.08;;;25.45;;
41921;SDS011;27609;51.002;5.354;2023-09-30T09:01:24;45.33;;;25.20;;
41921;SDS011;27609;51.002;5.354;2023-09-30T09:03:50;36.00;;;21.70;;
41921;SDS011;27609;51.002;5.354;2023-09-30T09:06:18;36.72;;;19.98;;
41921;SDS011;27609;51.002;5.354;2023-09-30T09:08:47;38.30;;;20.45;;
41921;SDS011;27609;51.002;5.354;2023-09-30T09:11:13;35.65;;;21.10;;
41921;SDS011;27609;51.002;5.354;2023-09-30T09:13:49;30.45;;;18.67;;
41921;SDS011;27609;51.002;5.354;2023-09-30T09:16:20;32.50;;;19.38;;
41921;SDS011;27609;51.002;5.354;2023-09-30T09:18:46;31.50;;;18.08;;
41921;SDS011;27609;51.002;5.354;2023-09-30T09:21:13;28.45;;;18.08;;
41921;SDS011;27609;51.002;5.354;2023-09-30T09:23:43;26.30;;;17.08;;
41921;SDS011;27609;51.002;5.354;2023-09-30T09:26:11;23.95;;;15.70;;
41921;SDS011;27609;51.002;5.354;2023-09-30T09:28:38;23.85;;;15.15;;
41921;SDS011;27609;51.002;5.354;2023-09-30T09:31:25;27.02;;;15.60;;
41921;SDS011;27609;51.002;5.354;2023-09-30T09:33:51;22.83;;;15.77;;
41921;SDS011;27609;51.002;5.354;2023-09-30T09:36:18;22.45;;;15.40;;
41921;SDS011;27609;51.002;5.354;2023-09-30T09:38:53;22.67;;;14.60;;
41921;SDS011;27609;51.002;5.354;2023-09-30T09:41:19;22.88;;;14.82;;
41921;SDS011;27609;51.002;5.354;2023-09-30T09:43:48;24.88;;;16.70;;
41921;SDS011;27609;51.002;5.354;2023-09-30T09:46:15;27.00;;;16.73;;
41921;SDS011;27609;51.002;5.354;2023-09-30T09:48:42;23.98;;;15.48;;
41921;SDS011;27609;51.002;5.354;2023-09-30T09:51:13;25.92;;;15.15;;
41921;SDS011;27609;51.002;5.354;2023-09-30T09:53:40;19.98;;;14.35;;
41921;SDS011;27609;51.002;5.354;2023-09-30T09:56:07;24.98;;;15.65;;
41921;SDS011;27609;51.002;5.354;2023-09-30T09:58:35;23.17;;;15.60;;
41921;SDS011;27609;51.002;5.354;2023-09-30T10:01:03;27.58;;;14.88;;
41921;SDS011;27609;51.002;5.354;2023-09-30T10:03:31;26.27;;;14.98;;
41921;SDS011;27609;51.002;5.354;2023-09-30T10:05:57;22.35;;;13.85;;
41921;SDS011;27609;51.002;5.354;2023-09-30T10:08:35;21.50;;;16.13;;
41921;SDS011;27609;51.002;5.354;2023-09-30T10:11:04;21.13;;;14.13;;
41921;SDS011;27609;51.002;5.354;2023-09-30T10:19:09;22.17;;;13.30;;
41921;SDS011;27609;51.002;5.354;2023-09-30T10:21:36;17.83;;;13.02;;
41921;SDS011;27609;51.002;5.354;2023-09-30T10:24:47;16.30;;;12.40;;
41921;SDS011;27609;51.002;5.354;2023-09-30T10:27:07;16.25;;;11.32;;
41921;SDS011;27609;51.002;5.354;2023-09-30T10:36:04;16.35;;;10.52;;
41921;SDS011;27609;51.002;5.354;2023-09-30T10:40:52;11.63;;;9.02;;
41921;SDS011;27609;51.002;5.354;2023-09-30T10:43:28;15.50;;;9.98;;
41921;SDS011;27609;51.002;5.354;2023-09-30T10:45:55;10.40;;;7.97;;
41921;SDS011;27609;51.002;5.354;2023-09-30T10:50:54;12.75;;;9.07;;
41921;SDS011;27609;51.002;5.354;2023-09-30T10:53:22;15.38;;;9.73;;
41921;SDS011;27609;51.002;5.354;2023-09-30T10:55:55;11.85;;;8.77;;
41921;SDS011;27609;51.002;5.354;2023-09-30T11:01:18;12.32;;;8.32;;
41921;SDS011;27609;51.002;5.354;2023-09-30T11:03:48;14.20;;;8.48;;
41921;SDS011;27609;51.002;5.354;2023-09-30T11:06:16;11.18;;;7.72;;
41921;SDS011;27609;51.002;5.354;2023-09-30T11:08:45;13.60;;;8.95;;
41921;SDS011;27609;51.002;5.354;2023-09-30T11:11:44;11.45;;;7.40;;
41921;SDS011;27609;51.002;5.354;2023-09-30T11:14:29;11.38;;;7.80;;
41921;SDS011;27609;51.002;5.354;2023-09-30T11:17:05;9.13;;;7.43;;
41921;SDS011;27609;51.002;5.354;2023-09-30T11:19:34;8.65;;;6.95;;
41921;SDS011;27609;51.002;5.354;2023-09-30T11:22:02;14.25;;;6.82;;
41921;SDS011;27609;51.002;5.354;2023-09-30T11:24:28;11.60;;;7.15;;
41921;SDS011;27609;51.002;5.354;2023-09-30T11:26:54;10.32;;;7.07;;
41921;SDS011;27609;51.002;5.354;2023-09-30T11:29:20;9.80;;;6.75;;
41921;SDS011;27609;51.002;5.354;2023-09-30T11:31:47;8.82;;;6.25;;
41921;SDS011;27609;51.002;5.354;2023-09-30T11:34:16;9.45;;;7.07;;
41921;SDS011;27609;51.002;5.354;2023-09-30T11:36:50;10.73;;;7.53;;
41921;SDS011;27609;51.002;5.354;2023-09-30T11:39:27;14.27;;;8.30;;
41921;SDS011;27609;51.002;5.354;2023-09-30T11:41:54;11.15;;;6.57;;
41921;SDS011;27609;51.002;5.354;2023-09-30T11:44:22;8.85;;;6.78;;
41921;SDS011;27609;51.002;5.354;2023-09-30T11:46:57;8.07;;;6.10;;
41921;SDS011;27609;51.002;5.354;2023-09-30T11:49:30;9.32;;;7.07;;
41921;SDS011;27609;51.002;5.354;2023-09-30T11:51:56;14.65;;;6.78;;
41921;SDS011;27609;51.002;5.354;2023-09-30T11:54:28;9.00;;;5.47;;
41921;SDS011;27609;51.002;5.354;2023-09-30T11:57:02;10.73;;;5.78;;
41921;SDS011;27609;51.002;5.354;2023-09-30T11:59:28;9.77;;;6.25;;
41921;SDS011;27609;51.002;5.354;2023-09-30T12:01:54;8.98;;;5.45;;
41921;SDS011;27609;51.002;5.354;2023-09-30T12:04:20;10.15;;;5.82;;
41921;SDS011;27609;51.002;5.354;2023-09-30T12:06:46;9.32;;;5.18;;
41921;SDS011;27609;51.002;5.354;2023-09-30T12:09:16;8.68;;;5.20;;
41921;SDS011;27609;51.002;5.354;2023-09-30T12:11:47;10.75;;;6.35;;
41921;SDS011;27609;51.002;5.354;2023-09-30T12:14:15;10.88;;;5.70;;
41921;SDS011;27609;51.002;5.354;2023-09-30T12:16:41;10.77;;;6.40;;
41921;SDS011;27609;51.002;5.354;2023-09-30T12:19:09;10.25;;;5.03;;
41921;SDS011;27609;51.002;5.354;2023-09-30T12:21:35;9.45;;;4.78;;
41921;SDS011;27609;51.002;5.354;2023-09-30T12:24:01;6.57;;;4.25;;
41921;SDS011;27609;51.002;5.354;2023-09-30T12:26:28;9.20;;;5.43;;
41921;SDS011;27609;51.002;5.354;2023-09-30T12:28:55;10.90;;;5.18;;
41921;SDS011;27609;51.002;5.354;2023-09-30T12:31:21;7.30;;;4.28;;
41921;SDS011;27609;51.002;5.354;2023-09-30T12:33:48;8.13;;;3.78;;
41921;SDS011;27609;51.002;5.354;2023-09-30T12:36:16;5.70;;;3.92;;
41921;SDS011;27609;51.002;5.354;2023-09-30T12:38:42;8.38;;;3.90;;
41921;SDS011;27609;51.002;5.354;2023-09-30T12:41:08;7.35;;;4.43;;
41921;SDS011;27609;51.002;5.354;2023-09-30T12:43:34;7.20;;;4.25;;
41921;SDS011;27609;51.002;5.354;2023-09-30T12:46:00;9.02;;;4.50;;
41921;SDS011;27609;51.002;5.354;2023-09-30T12:48:26;5.90;;;4.10;;
41921;SDS011;27609;51.002;5.354;2023-09-30T12:50:51;7.30;;;4.43;;
41921;SDS011;27609;51.002;5.354;2023-09-30T12:53:17;7.20;;;4.38;;
41921;SDS011;27609;51.002;5.354;2023-09-30T12:55:43;8.90;;;4.50;;
41921;SDS011;27609;51.002;5.354;2023-09-30T12:58:08;8.40;;;4.40;;
41921;SDS011;27609;51.002;5.354;2023-09-30T13:00:34;9.35;;;4.43;;
41921;SDS011;27609;51.002;5.354;2023-09-30T13:03:01;7.38;;;4.53;;
41921;SDS011;27609;51.002;5.354;2023-09-30T13:05:28;7.47;;;3.83;;
41921;SDS011;27609;51.002;5.354;2023-09-30T13:07:57;7.85;;;4.07;;
41921;SDS011;27609;51.002;5.354;2023-09-30T13:10:22;6.50;;;4.18;;
41921;SDS011;27609;51.002;5.354;2023-09-30T13:12:49;8.68;;;4.32;;
41921;SDS011;27609;51.002;5.354;2023-09-30T13:15:15;7.78;;;3.70;;
41921;SDS011;27609;51.002;5.354;2023-09-30T13:17:42;7.63;;;4.35;;
41921;SDS011;27609;51.002;5.354;2023-09-30T13:20:08;7.35;;;3.30;;
41921;SDS011;27609;51.002;5.354;2023-09-30T13:22:36;7.25;;;3.72;;
41921;SDS011;27609;51.002;5.354;2023-09-30T13:25:03;5.57;;;3.38;;
41921;SDS011;27609;51.002;5.354;2023-09-30T13:27:37;6.97;;;3.80;;
41921;SDS011;27609;51.002;5.354;2023-09-30T13:30:05;8.93;;;4.55;;
41921;SDS011;27609;51.002;5.354;2023-09-30T13:32:32;7.63;;;3.90;;
41921;SDS011;27609;51.002;5.354;2023-09-30T13:35:01;10.13;;;3.80;;
41921;SDS011;27609;51.002;5.354;2023-09-30T13:37:29;8.40;;;3.53;;
41921;SDS011;27609;51.002;5.354;2023-09-30T13:39:58;9.10;;;3.95;;
41921;SDS011;27609;51.002;5.354;2023-09-30T13:42:25;9.10;;;4.10;;
41921;SDS011;27609;51.002;5.354;2023-09-30T13:44:50;5.55;;;3.85;;
41921;SDS011;27609;51.002;5.354;2023-09-30T13:47:16;8.90;;;3.45;;
41921;SDS011;27609;51.002;5.354;2023-09-30T13:49:42;7.95;;;3.90;;
41921;SDS011;27609;51.002;5.354;2023-09-30T13:52:07;7.57;;;4.50;;
41921;SDS011;27609;51.002;5.354;2023-09-30T13:54:33;7.78;;;3.90;;
41921;SDS011;27609;51.002;5.354;2023-09-30T13:56:58;7.40;;;3.42;;
41921;SDS011;27609;51.002;5.354;2023-09-30T13:59:24;9.18;;;5.28;;
41921;SDS011;27609;51.002;5.354;2023-09-30T14:01:50;9.02;;;3.92;;
41921;SDS011;27609;51.002;5.354;2023-09-30T14:04:16;7.25;;;4.43;;
41921;SDS011;27609;51.002;5.354;2023-09-30T14:06:42;6.93;;;3.60;;
41921;SDS011;27609;51.002;5.354;2023-09-30T14:09:08;8.77;;;3.80;;
41921;SDS011;27609;51.002;5.354;2023-09-30T14:11:40;7.07;;;4.18;;
41921;SDS011;27609;51.002;5.354;2023-09-30T14:14:06;6.90;;;3.30;;
41921;SDS011;27609;51.002;5.354;2023-09-30T14:16:34;6.63;;;3.20;;
41921;SDS011;27609;51.002;5.354;2023-09-30T14:19:01;5.35;;;3.75;;
41921;SDS011;27609;51.002;5.354;2023-09-30T14:21:26;5.65;;;3.45;;
41921;SDS011;27609;51.002;5.354;2023-09-30T14:23:53;7.15;;;3.88;;
41921;SDS011;27609;51.002;5.354;2023-09-30T14:26:19;9.35;;;3.60;;
41921;SDS011;27609;51.002;5.354;2023-09-30T14:28:45;7.78;;;3.33;;
41921;SDS011;27609;51.002;5.354;2023-09-30T14:31:10;7.55;;;3.67;;
41921;SDS011;27609;51.002;5.354;2023-09-30T14:33:36;6.82;;;3.40;;
41921;SDS011;27609;51.002;5.354;2023-09-30T14:36:02;6.03;;;3.40;;
41921;SDS011;27609;51.002;5.354;2023-09-30T14:38:30;6.65;;;3.90;;
41921;SDS011;27609;51.002;5.354;2023-09-30T14:40:57;6.50;;;4.13;;
41921;SDS011;27609;51.002;5.354;2023-09-30T14:43:22;7.97;;;3.90;;
41921;SDS011;27609;51.002;5.354;2023-09-30T14:45:48;8.45;;;3.83;;
41921;SDS011;27609;51.002;5.354;2023-09-30T14:48:14;5.65;;;3.70;;
41921;SDS011;27609;51.002;5.354;2023-09-30T14:51:01;5.45;;;3.33;;
41921;SDS011;27609;51.002;5.354;2023-09-30T14:53:25;8.18;;;4.25;;
41921;SDS011;27609;51.002;5.354;2023-09-30T14:55:51;7.72;;;3.75;;
41921;SDS011;27609;51.002;5.354;2023-09-30T14:58:17;7.55;;;4.10;;